ETNH

Hohn Airport

Germany
METAR ETNH 180820Z 14004KT 4500 BR BKN013 01/00 Q1022 GRN GRN TEMPO YLO
Observed Flight Rules
Dec-18 @ 08:20 UTC (32 minutes ago) Instrument Flight Rules
Wind Visibility Clouds Conditions
140° at 4 knots 4,506 meters
  • Broken at 1,300' AGL
  • Mist
Temperatures Readings
Current 1°C / 34°F
Dewpoint 0°C / 32°F
Humidity 93%
Altimeter 30.18" Hg
Pressure 1022 hPa
Elevation 17
METAR ETNH 180820Z 14004KT 4500 BR BKN013 01/00 Q1022 GRN GRN TEMPO YLO
Observed Flight Rules
Dec-18 @ 08:20 UTC
(32 minutes ago)
IFR
Wind Visibility
140° at 4 knots 4,506 meters
Clouds
  • Broken at 1,300' AGL
Conditions
  • Mist
Temperature Dewpoint
1°C / 34°F 0°C / 32°F
Humidity Altimeter Pressure
93% 30.18" Hg 1022 hPa